createdAt,value
2022-07-29T00:02:26.582Z,100178.94
2022-07-29T00:04:53.196Z,100174.75
2022-07-29T00:07:39.651Z,100170.00
2022-07-29T00:10:26.108Z,100168.03
2022-07-29T00:13:12.583Z,100152.91
2022-07-29T00:16:04.795Z,100150.66
2022-07-29T00:18:51.628Z,100148.28
2022-07-29T00:21:38.108Z,100169.00
2022-07-29T00:24:05.119Z,100164.25
2022-07-29T00:26:33.404Z,100166.22
2022-07-29T00:29:32.000Z,100167.22
2022-07-29T00:31:47.385Z,100164.84
2022-07-29T00:34:32.763Z,100164.84
2022-07-29T00:36:59.260Z,100161.06
2022-07-29T00:39:25.836Z,100156.41
2022-07-29T00:41:54.650Z,100151.84
2022-07-29T00:44:21.264Z,100150.72
2022-07-29T00:46:47.873Z,100145.81
2022-07-29T00:49:14.645Z,100142.59
2022-07-29T00:51:41.829Z,100152.00
2022-07-29T00:54:08.521Z,100145.13
2022-07-29T00:56:34.998Z,100152.97
2022-07-29T00:59:01.914Z,100143.19
2022-07-29T01:01:29.422Z,100138.13
2022-07-29T01:03:56.119Z,100140.69
2022-07-29T01:06:23.438Z,100144.59
2022-07-29T01:08:50.275Z,100137.44
2022-07-29T01:11:18.088Z,100141.78
2022-07-29T01:13:46.781Z,100129.91
2022-07-29T01:16:24.723Z,100142.78
2022-07-29T01:18:57.720Z,100138.13
2022-07-29T01:21:52.834Z,100133.09
2022-07-29T01:24:40.703Z,100134.09
2022-07-29T01:27:35.172Z,100128.16
2022-07-29T01:30:05.211Z,100130.94
2022-07-29T01:32:38.042Z,100127.75
2022-07-29T01:35:21.428Z,100124.50
2022-07-29T01:37:52.911Z,100120.41
2022-07-29T01:40:32.051Z,100131.03
2022-07-29T01:43:04.191Z,100123.50
2022-07-29T01:45:41.869Z,100122.53
2022-07-29T01:48:17.591Z,100116.66
2022-07-29T01:50:57.421Z,100107.00
2022-07-29T01:53:37.859Z,100100.09
2022-07-29T01:56:07.305Z,100099.25
2022-07-29T01:58:36.559Z,100102.13
2022-07-29T02:01:04.464Z,100097.72
2022-07-29T02:03:32.581Z,100107.25
2022-07-29T02:06:00.873Z,100102.50
2022-07-29T02:08:29.056Z,100097.94
2022-07-29T02:10:56.584Z,100094.50
2022-07-29T02:13:25.555Z,100096.63
2022-07-29T02:15:53.979Z,100098.03
2022-07-29T02:18:24.997Z,100095.91
2022-07-29T02:20:55.164Z,100091.16
2022-07-29T02:23:24.015Z,100094.19
2022-07-29T02:25:54.112Z,100091.00
2022-07-29T02:28:23.512Z,100095.03
2022-07-29T02:30:53.041Z,100104.81
2022-07-29T02:33:21.437Z,100098.69
2022-07-29T02:35:48.837Z,100096.78
2022-07-29T02:38:36.135Z,100107.06
2022-07-29T02:41:08.793Z,100102.88
2022-07-29T02:43:36.786Z,100112.94
2022-07-29T02:46:12.724Z,100110.56
2022-07-29T02:49:11.342Z,100113.47
2022-07-29T02:51:45.057Z,100110.16
2022-07-29T02:54:22.506Z,100106.03
2022-07-29T02:56:50.675Z,100098.31
2022-07-29T02:59:24.185Z,100103.50
2022-07-29T03:01:51.935Z,100105.94
2022-07-29T03:04:21.389Z,100102.75
2022-07-29T03:06:50.620Z,100108.16
2022-07-29T03:09:18.268Z,100097.50
2022-07-29T03:11:49.175Z,100104.94
2022-07-29T03:14:21.612Z,100107.84
2022-07-29T03:16:49.374Z,100108.22
2022-07-29T03:19:16.423Z,100113.75
2022-07-29T03:21:43.104Z,100114.00
2022-07-29T03:24:10.877Z,100114.00
2022-07-29T03:26:37.759Z,100108.03
2022-07-29T03:29:04.277Z,100109.25
2022-07-29T03:31:30.863Z,100104.94
2022-07-29T03:33:58.389Z,100112.25
2022-07-29T03:36:25.686Z,100105.97
2022-07-29T03:38:53.061Z,100111.97
2022-07-29T03:41:22.643Z,100106.66
2022-07-29T03:43:50.939Z,100107.38
2022-07-29T03:46:18.679Z,100109.09
2022-07-29T03:48:49.581Z,100100.41
2022-07-29T03:51:16.216Z,100108.97
2022-07-29T03:53:43.548Z,100111.38
2022-07-29T03:56:11.301Z,100107.50
2022-07-29T03:58:39.104Z,100108.00
2022-07-29T04:01:06.113Z,100106.94
2022-07-29T04:03:32.787Z,100106.94
2022-07-29T04:06:01.173Z,100105.84
2022-07-29T04:08:27.693Z,100103.81
2022-07-29T04:10:54.340Z,100103.00
2022-07-29T04:13:21.527Z,100106.94
2022-07-29T04:15:48.422Z,100103.09
2022-07-29T04:18:15.244Z,100113.19
2022-07-29T04:20:41.701Z,100105.41
2022-07-29T04:23:08.155Z,100112.28
2022-07-29T04:25:38.241Z,100121.19
2022-07-29T04:28:04.929Z,100120.84
2022-07-29T04:30:32.912Z,100120.00
2022-07-29T04:33:01.644Z,100120.00
2022-07-29T04:35:29.455Z,100126.00
2022-07-29T04:37:55.977Z,100127.69
2022-07-29T04:40:22.823Z,100130.34
2022-07-29T04:42:49.528Z,100130.78
2022-07-29T04:45:16.427Z,100132.47
2022-07-29T04:47:48.852Z,100130.09
2022-07-29T04:50:15.464Z,100130.28
2022-07-29T04:52:41.987Z,100129.94
2022-07-29T04:55:08.865Z,100127.97
2022-07-29T04:57:35.328Z,100136.19
2022-07-29T05:00:02.220Z,100132.44
2022-07-29T05:02:28.734Z,100129.66
2022-07-29T05:04:55.193Z,100131.59
2022-07-29T05:07:21.767Z,100123.78
2022-07-29T05:09:48.427Z,100126.53
2022-07-29T05:12:14.960Z,100121.66
2022-07-29T05:14:41.445Z,100128.75
2022-07-29T05:17:07.995Z,100131.22
2022-07-29T05:19:34.463Z,100132.38
2022-07-29T05:22:06.421Z,100135.00
2022-07-29T05:24:32.981Z,100132.22
2022-07-29T05:26:59.509Z,100134.88
2022-07-29T05:29:44.774Z,100130.84
2022-07-29T05:32:13.700Z,100129.69
2022-07-29T05:34:50.467Z,100129.78
2022-07-29T05:37:20.212Z,100137.59
2022-07-29T05:39:50.481Z,100135.19
2022-07-29T05:42:23.029Z,100137.31
2022-07-29T05:44:49.557Z,100134.47
2022-07-29T05:47:16.883Z,100136.03
2022-07-29T05:49:43.388Z,100142.03
2022-07-29T05:52:09.934Z,100144.88
2022-07-29T05:54:36.808Z,100143.13
2022-07-29T05:57:04.290Z,100143.59
2022-07-29T05:59:30.957Z,100140.97
2022-07-29T06:01:58.434Z,100149.34
2022-07-29T06:04:25.337Z,100145.31
2022-07-29T06:06:52.063Z,100145.72
2022-07-29T06:09:18.614Z,100152.16
2022-07-29T06:11:45.079Z,100152.19
2022-07-29T06:14:12.047Z,100151.13
2022-07-29T06:16:38.707Z,100151.69
2022-07-29T06:19:05.520Z,100151.72
2022-07-29T06:21:32.096Z,100153.19
2022-07-29T06:23:58.645Z,100149.97
2022-07-29T06:26:30.348Z,100154.56
2022-07-29T06:28:57.399Z,100162.72
2022-07-29T06:31:24.047Z,100159.66
2022-07-29T06:33:50.685Z,100161.06
2022-07-29T06:36:17.188Z,100159.69
2022-07-29T06:38:49.527Z,100161.25
2022-07-29T06:41:18.875Z,100164.16
2022-07-29T06:43:52.065Z,100174.81
2022-07-29T06:46:22.453Z,100158.13
2022-07-29T06:48:49.940Z,100162.63
2022-07-29T06:51:17.393Z,100162.72
2022-07-29T06:53:59.076Z,100165.56
2022-07-29T06:56:28.618Z,100172.84
2022-07-29T06:58:55.237Z,100165.00
2022-07-29T07:01:21.902Z,100180.53
2022-07-29T07:03:48.991Z,100179.94
2022-07-29T07:06:15.663Z,100172.19
2022-07-29T07:08:42.145Z,100175.25
2022-07-29T07:11:09.384Z,100184.97
2022-07-29T07:13:36.832Z,100189.84
2022-07-29T07:16:03.882Z,100189.94
2022-07-29T07:18:30.377Z,100185.53
2022-07-29T07:20:57.855Z,100185.44
2022-07-29T07:23:24.884Z,100185.53
2022-07-29T07:25:52.258Z,100182.81
2022-07-29T07:28:18.785Z,100178.31
2022-07-29T07:30:51.264Z,100173.78
2022-07-29T07:33:17.839Z,100179.84
2022-07-29T07:35:45.133Z,100186.28
2022-07-29T07:38:11.659Z,100195.56
2022-07-29T07:40:38.241Z,100193.56
2022-07-29T07:43:04.876Z,100192.09
2022-07-29T07:45:33.489Z,100196.81
2022-07-29T07:48:00.231Z,100189.09
2022-07-29T07:50:26.956Z,100188.88
2022-07-29T07:52:58.599Z,100182.78
2022-07-29T07:55:26.815Z,100188.19
2022-07-29T07:57:54.408Z,100189.97
2022-07-29T08:00:22.926Z,100194.84
2022-07-29T08:02:50.791Z,100188.34
2022-07-29T08:05:20.282Z,100190.03
2022-07-29T08:07:47.841Z,100190.41
2022-07-29T08:10:39.644Z,100188.19
2022-07-29T08:13:11.840Z,100198.81
2022-07-29T08:15:39.968Z,100203.69
2022-07-29T08:18:08.913Z,100192.53
2022-07-29T08:20:36.888Z,100200.13
2022-07-29T08:23:05.200Z,100193.09
2022-07-29T08:25:31.921Z,100195.44
2022-07-29T08:27:58.518Z,100197.72
2022-07-29T08:30:25.319Z,100202.00
2022-07-29T08:32:55.093Z,100199.94
2022-07-29T08:35:22.980Z,100195.63
2022-07-29T08:37:49.844Z,100199.59
2022-07-29T08:40:16.749Z,100196.50
2022-07-29T08:42:43.621Z,100199.25
2022-07-29T08:45:10.719Z,100195.44
2022-07-29T08:47:42.760Z,100203.53
2022-07-29T08:50:10.427Z,100205.91
2022-07-29T08:52:40.752Z,100206.28
2022-07-29T08:55:09.845Z,100207.13
2022-07-29T08:57:37.112Z,100211.91
2022-07-29T09:00:11.634Z,100209.75
2022-07-29T09:02:46.996Z,100201.53
2022-07-29T09:05:15.237Z,100206.38
2022-07-29T09:07:44.165Z,100208.75
2022-07-29T09:10:11.135Z,100211.59
2022-07-29T09:12:38.362Z,100206.38
2022-07-29T09:15:05.486Z,100213.41
2022-07-29T09:17:43.331Z,100207.53
2022-07-29T09:20:15.364Z,100206.69
2022-07-29T09:22:42.404Z,100203.06
2022-07-29T09:25:09.436Z,100200.06
2022-07-29T09:27:36.569Z,100192.75
2022-07-29T09:30:11.448Z,100189.22
2022-07-29T09:32:59.116Z,100199.00
2022-07-29T09:35:27.377Z,100196.50
2022-07-29T09:37:54.036Z,100189.69
2022-07-29T09:40:25.813Z,100190.56
2022-07-29T09:42:54.114Z,100194.94
2022-07-29T09:45:31.699Z,100195.09
2022-07-29T09:48:03.944Z,100202.72
2022-07-29T09:50:41.086Z,100215.13
2022-07-29T09:53:10.205Z,100205.78
2022-07-29T09:55:55.016Z,100201.56
2022-07-29T09:58:23.343Z,100203.53
2022-07-29T10:00:52.031Z,100202.16
2022-07-29T10:03:19.186Z,100197.81
2022-07-29T10:05:46.669Z,100198.47
2022-07-29T10:08:13.591Z,100192.56
2022-07-29T10:10:43.367Z,100197.41
2022-07-29T10:13:15.806Z,100189.84
2022-07-29T10:15:46.035Z,100194.59
2022-07-29T10:18:14.206Z,100186.56
2022-07-29T10:20:41.088Z,100189.94
2022-07-29T10:23:07.583Z,100189.47
2022-07-29T10:25:34.307Z,100192.41
2022-07-29T10:28:00.961Z,100185.56
2022-07-29T10:30:27.694Z,100185.19
2022-07-29T10:33:28.603Z,100192.16
2022-07-29T10:36:32.677Z,100182.00
2022-07-29T10:39:08.191Z,100189.09
2022-07-29T10:41:43.854Z,100180.47
2022-07-29T10:44:23.143Z,100177.88
2022-07-29T10:46:51.510Z,100177.94
2022-07-29T10:49:27.225Z,100179.06
2022-07-29T10:52:05.979Z,100174.00
2022-07-29T10:54:45.983Z,100172.00
2022-07-29T10:57:15.499Z,100167.13
2022-07-29T10:59:44.112Z,100165.66
2022-07-29T11:02:43.963Z,100160.25
2022-07-29T11:05:20.396Z,100163.72
2022-07-29T11:08:20.105Z,100160.22
2022-07-29T11:10:49.177Z,100162.63
2022-07-29T11:13:44.225Z,100172.63
2022-07-29T11:16:11.262Z,100161.38
2022-07-29T11:19:13.160Z,100159.06
2022-07-29T11:21:55.302Z,100155.28
2022-07-29T11:24:31.927Z,100158.19
2022-07-29T11:27:20.918Z,100145.94
2022-07-29T11:29:58.869Z,100142.41
2022-07-29T11:32:38.406Z,100149.66
2022-07-29T11:35:37.132Z,100152.75
2022-07-29T11:38:27.644Z,100144.66
2022-07-29T11:41:25.928Z,100145.97
2022-07-29T11:43:59.265Z,100139.72
2022-07-29T11:46:51.820Z,100146.41
2022-07-29T11:49:31.966Z,100154.47
2022-07-29T11:52:02.491Z,100146.19
2022-07-29T11:54:33.555Z,100145.19
2022-07-29T11:57:20.101Z,100140.63
2022-07-29T11:59:48.694Z,100133.63
2022-07-29T12:02:38.176Z,100130.47
2022-07-29T12:05:10.592Z,100119.53
2022-07-29T12:07:49.875Z,100126.38
2022-07-29T12:10:19.838Z,100122.81
2022-07-29T12:12:56.192Z,100110.09
2022-07-29T12:15:39.486Z,100118.41
2022-07-29T12:18:18.405Z,100116.13
2022-07-29T12:20:46.352Z,100115.25
2022-07-29T12:23:13.978Z,100116.63
2022-07-29T12:25:49.945Z,100111.34
2022-07-29T12:28:27.487Z,100110.94
2022-07-29T12:30:54.884Z,100115.63
2022-07-29T12:33:29.572Z,100115.50
2022-07-29T12:36:09.420Z,100117.66
2022-07-29T12:38:41.477Z,100125.44
2022-07-29T12:41:08.060Z,100117.53
2022-07-29T12:43:34.645Z,100120.53
2022-07-29T12:46:13.750Z,100116.97
2022-07-29T12:48:42.243Z,100105.78
2022-07-29T12:51:10.060Z,100109.63
2022-07-29T12:53:37.778Z,100103.34
2022-07-29T12:56:20.555Z,100110.81
2022-07-29T12:58:51.098Z,100101.03
2022-07-29T13:01:21.114Z,100096.88
2022-07-29T13:03:59.792Z,100102.78
2022-07-29T13:06:35.896Z,100094.44
2022-07-29T13:09:10.531Z,100091.41
2022-07-29T13:12:07.170Z,100097.44
2022-07-29T13:14:34.791Z,100096.84
2022-07-29T13:17:06.052Z,100089.97
2022-07-29T13:19:37.195Z,100084.97
2022-07-29T13:22:04.284Z,100087.66
2022-07-29T13:24:31.099Z,100084.47
2022-07-29T13:26:57.541Z,100090.72
2022-07-29T13:29:26.549Z,100093.88
2022-07-29T13:31:55.721Z,100091.25
2022-07-29T13:34:23.304Z,100090.28
2022-07-29T13:36:49.735Z,100088.28
2022-07-29T13:39:16.390Z,100097.50
2022-07-29T13:41:43.365Z,100094.34
2022-07-29T13:44:09.922Z,100098.72
2022-07-29T13:46:36.372Z,100114.53
2022-07-29T13:49:06.667Z,100107.50
2022-07-29T13:51:33.418Z,100102.88
2022-07-29T13:53:59.907Z,100091.84
2022-07-29T13:56:27.112Z,100087.25
2022-07-29T13:58:53.526Z,100093.72
2022-07-29T14:01:20.096Z,100086.69
2022-07-29T14:03:46.656Z,100088.59
2022-07-29T14:06:14.189Z,100082.53
2022-07-29T14:08:41.111Z,100086.91
2022-07-29T14:11:07.653Z,100085.25
2022-07-29T14:13:34.110Z,100080.91
2022-07-29T14:16:00.642Z,100076.66
2022-07-29T14:18:27.104Z,100084.41
2022-07-29T14:20:53.824Z,100084.84
2022-07-29T14:23:20.513Z,100084.97
2022-07-29T14:25:47.229Z,100075.00
2022-07-29T14:28:16.044Z,100086.22
2022-07-29T14:30:43.207Z,100081.28
2022-07-29T14:33:09.865Z,100090.03
2022-07-29T14:35:36.368Z,100084.22
2022-07-29T14:38:03.063Z,100086.66
2022-07-29T14:40:29.710Z,100083.16
2022-07-29T14:42:56.323Z,100088.53
2022-07-29T14:45:23.942Z,100092.31
2022-07-29T14:47:51.656Z,100078.78
2022-07-29T14:50:31.136Z,100071.38
2022-07-29T14:52:59.070Z,100076.31
2022-07-29T14:55:25.669Z,100076.91
2022-07-29T14:57:55.431Z,100074.06
2022-07-29T15:00:25.272Z,100078.91
2022-07-29T15:03:01.955Z,100077.81
2022-07-29T15:05:29.244Z,100083.56
2022-07-29T15:07:55.799Z,100077.00
2022-07-29T15:10:22.497Z,100077.75
2022-07-29T15:12:51.296Z,100079.03
2022-07-29T15:15:17.773Z,100073.69
2022-07-29T15:17:44.318Z,100078.06
2022-07-29T15:20:12.604Z,100082.66
2022-07-29T15:22:39.341Z,100065.28
2022-07-29T15:25:06.699Z,100073.81
2022-07-29T15:27:33.243Z,100075.25
2022-07-29T15:29:59.786Z,100082.91
2022-07-29T15:32:28.481Z,100080.19
2022-07-29T15:34:55.017Z,100081.00
2022-07-29T15:37:21.687Z,100081.81
2022-07-29T15:39:48.372Z,100076.75
2022-07-29T15:42:14.840Z,100090.25
2022-07-29T15:44:44.414Z,100079.22
2022-07-29T15:47:11.007Z,100077.38
2022-07-29T15:49:48.405Z,100078.88
2022-07-29T15:52:24.755Z,100074.53
2022-07-29T15:54:53.961Z,100074.00
2022-07-29T15:57:20.520Z,100074.00
2022-07-29T15:59:47.034Z,100074.41
2022-07-29T16:02:13.584Z,100069.84
2022-07-29T16:04:40.205Z,100077.53
2022-07-29T16:07:09.315Z,100073.13
2022-07-29T16:09:35.810Z,100062.34
2022-07-29T16:12:02.551Z,100049.81
2022-07-29T16:14:32.165Z,100074.63
2022-07-29T16:16:59.083Z,100072.00
2022-07-29T16:19:25.803Z,100076.53
2022-07-29T16:21:53.499Z,100070.75
2022-07-29T16:24:22.678Z,100074.34
2022-07-29T16:26:50.247Z,100075.41
2022-07-29T16:29:18.538Z,100071.38
2022-07-29T16:31:45.130Z,100092.53
2022-07-29T16:34:11.576Z,100092.63
2022-07-29T16:36:38.040Z,100105.16
2022-07-29T16:39:05.595Z,100100.94
2022-07-29T16:41:32.288Z,100091.88
2022-07-29T16:43:59.120Z,100107.41
2022-07-29T16:46:25.867Z,100101.25
2022-07-29T16:48:52.467Z,100096.06
2022-07-29T16:51:19.239Z,100108.69
2022-07-29T16:53:45.839Z,100108.34
2022-07-29T16:56:16.441Z,100107.31
2022-07-29T16:58:43.964Z,100115.84
2022-07-29T17:01:11.297Z,100109.38
2022-07-29T17:04:00.264Z,100119.22
2022-07-29T17:06:27.605Z,100110.38
2022-07-29T17:08:54.056Z,100112.34
2022-07-29T17:11:20.773Z,100112.19
2022-07-29T17:13:47.225Z,100116.34
2022-07-29T17:16:14.894Z,100117.94
2022-07-29T17:18:41.327Z,100111.94
2022-07-29T17:21:07.793Z,100121.25
2022-07-29T17:23:34.234Z,100141.13
2022-07-29T17:26:00.983Z,100133.53
2022-07-29T17:28:27.697Z,100127.56
2022-07-29T17:30:54.270Z,100139.44
2022-07-29T17:33:23.040Z,100141.06
2022-07-29T17:36:08.447Z,100152.88
2022-07-29T17:38:35.022Z,100152.88
2022-07-29T17:41:01.600Z,100149.75
2022-07-29T17:43:34.377Z,100150.69
2022-07-29T17:46:00.999Z,100149.41
2022-07-29T17:48:27.532Z,100148.75
2022-07-29T17:50:54.128Z,100157.38
2022-07-29T17:53:20.775Z,100158.69
2022-07-29T17:55:48.506Z,100158.22
2022-07-29T17:58:15.920Z,100160.53
2022-07-29T18:00:42.713Z,100161.72
2022-07-29T18:03:09.719Z,100165.66
2022-07-29T18:05:37.004Z,100165.41
2022-07-29T18:08:03.879Z,100162.97
2022-07-29T18:10:30.359Z,100168.63
2022-07-29T18:12:56.944Z,100174.53
2022-07-29T18:15:23.451Z,100179.94
2022-07-29T18:17:56.993Z,100179.56
2022-07-29T18:20:25.692Z,100192.81
2022-07-29T18:22:52.221Z,100193.09
2022-07-29T18:25:18.788Z,100195.38
2022-07-29T18:27:45.291Z,100202.38
2022-07-29T18:30:12.016Z,100205.59
2022-07-29T18:32:39.545Z,100207.56
2022-07-29T18:35:06.699Z,100204.03
2022-07-29T18:38:01.639Z,100213.00
2022-07-29T18:40:23.724Z,100216.38
2022-07-29T18:42:50.144Z,100218.31
2022-07-29T18:45:19.090Z,100222.94
2022-07-29T18:47:47.547Z,100231.63
2022-07-29T18:50:14.603Z,100231.59
2022-07-29T18:52:41.427Z,100236.78
2022-07-29T18:55:08.629Z,100230.47
2022-07-29T18:57:56.192Z,100231.31
2022-07-29T19:00:22.479Z,100229.94
2022-07-29T19:02:49.760Z,100236.91
2022-07-29T19:05:16.605Z,100227.25
2022-07-29T19:07:43.058Z,100235.53
2022-07-29T19:10:09.804Z,100236.47
2022-07-29T19:12:36.359Z,100239.13
2022-07-29T19:15:03.506Z,100237.38
2022-07-29T19:17:30.376Z,100238.16
2022-07-29T19:19:57.117Z,100247.53
2022-07-29T19:22:23.754Z,100246.84
2022-07-29T19:24:50.902Z,100250.78
2022-07-29T19:27:17.584Z,100251.75
2022-07-29T19:29:44.476Z,100264.19
2022-07-29T19:32:11.864Z,100254.41
2022-07-29T19:34:38.418Z,100260.06
2022-07-29T19:37:05.251Z,100257.38
2022-07-29T19:39:35.539Z,100269.81
2022-07-29T19:42:03.520Z,100274.84
2022-07-29T19:44:30.262Z,100284.84
2022-07-29T19:46:59.349Z,100281.59
2022-07-29T19:49:26.071Z,100284.53
2022-07-29T19:51:53.997Z,100288.31
2022-07-29T19:54:20.765Z,100284.84
2022-07-29T19:56:47.284Z,100285.81
2022-07-29T19:59:16.311Z,100278.81
2022-07-29T20:01:42.849Z,100289.66
2022-07-29T20:04:10.735Z,100292.69
2022-07-29T20:06:37.467Z,100291.94
2022-07-29T20:09:05.663Z,100299.31
2022-07-29T20:11:36.693Z,100307.97
2022-07-29T20:14:05.334Z,100322.38
2022-07-29T20:16:32.349Z,100316.53
2022-07-29T20:18:58.973Z,100322.69
2022-07-29T20:21:26.731Z,100332.53
2022-07-29T20:23:54.087Z,100330.63
2022-07-29T20:26:20.539Z,100336.31
2022-07-29T20:28:49.457Z,100339.50
2022-07-29T20:31:16.786Z,100340.06
2022-07-29T20:33:43.375Z,100337.84
2022-07-29T20:36:09.844Z,100347.41
2022-07-29T20:38:36.489Z,100350.22
2022-07-29T20:41:03.029Z,100347.72
2022-07-29T20:43:29.528Z,100339.53
2022-07-29T20:45:56.145Z,100333.97
2022-07-29T20:48:22.677Z,100334.34
2022-07-29T20:50:49.312Z,100343.06
2022-07-29T20:53:16.641Z,100338.31
2022-07-29T20:55:43.437Z,100343.91
2022-07-29T20:58:09.964Z,100343.91
2022-07-29T21:00:36.980Z,100333.38
2022-07-29T21:03:03.726Z,100358.50
2022-07-29T21:05:31.352Z,100359.69
2022-07-29T21:07:58.377Z,100351.66
2022-07-29T21:10:25.616Z,100371.72
2022-07-29T21:12:52.142Z,100373.63
2022-07-29T21:15:20.699Z,100371.34
2022-07-29T21:17:48.151Z,100369.78
2022-07-29T21:20:17.562Z,100373.75
2022-07-29T21:22:44.990Z,100376.28
2022-07-29T21:25:12.128Z,100384.91
2022-07-29T21:27:57.128Z,100382.06
2022-07-29T21:30:23.583Z,100383.97
2022-07-29T21:32:50.214Z,100384.59
2022-07-29T21:35:35.749Z,100381.31
2022-07-29T21:38:03.515Z,100386.38
2022-07-29T21:40:30.368Z,100395.88
2022-07-29T21:42:56.907Z,100395.75
2022-07-29T21:45:23.680Z,100392.84
2022-07-29T21:47:50.123Z,100391.41
2022-07-29T21:50:16.703Z,100390.94
2022-07-29T21:52:43.211Z,100396.72
2022-07-29T21:55:11.448Z,100395.63
2022-07-29T21:57:38.190Z,100395.75
2022-07-29T22:00:07.744Z,100395.16
2022-07-29T22:02:39.363Z,100398.16
2022-07-29T22:05:05.976Z,100399.94
2022-07-29T22:07:56.375Z,100396.34
2022-07-29T22:10:19.431Z,100402.88
2022-07-29T22:12:46.208Z,100400.78
2022-07-29T22:15:12.709Z,100403.09
2022-07-29T22:17:40.861Z,100400.44
2022-07-29T22:20:07.855Z,100400.06
2022-07-29T22:22:34.344Z,100409.59
2022-07-29T22:25:00.907Z,100389.63
2022-07-29T22:27:27.450Z,100392.47
2022-07-29T22:29:54.179Z,100396.41
2022-07-29T22:32:20.658Z,100404.88
2022-07-29T22:34:47.080Z,100399.34
2022-07-29T22:37:13.620Z,100407.13
2022-07-29T22:39:40.139Z,100403.41
2022-07-29T22:42:06.771Z,100405.22
2022-07-29T22:44:33.357Z,100414.59
2022-07-29T22:47:00.220Z,100415.91
2022-07-29T22:49:26.931Z,100418.66
2022-07-29T22:51:53.396Z,100416.56
2022-07-29T22:54:19.816Z,100420.91
2022-07-29T22:56:46.297Z,100418.03
2022-07-29T22:59:12.733Z,100424.06
2022-07-29T23:01:39.284Z,100421.13
2022-07-29T23:04:06.523Z,100421.59
2022-07-29T23:06:33.960Z,100422.88
2022-07-29T23:09:00.437Z,100422.88
2022-07-29T23:11:26.910Z,100423.22
2022-07-29T23:13:53.365Z,100417.69
2022-07-29T23:16:26.583Z,100421.06
2022-07-29T23:18:54.052Z,100419.56
2022-07-29T23:21:20.883Z,100422.88
2022-07-29T23:23:48.415Z,100422.72
2022-07-29T23:26:16.894Z,100439.94
2022-07-29T23:28:44.902Z,100434.88
2022-07-29T23:31:13.316Z,100442.69
2022-07-29T23:33:41.727Z,100451.69
2022-07-29T23:36:09.042Z,100457.38
2022-07-29T23:38:39.081Z,100453.38
2022-07-29T23:41:08.871Z,100444.38
2022-07-29T23:43:38.516Z,100440.66
2022-07-29T23:46:05.167Z,100432.84
2022-07-29T23:48:33.179Z,100431.88
2022-07-29T23:51:01.026Z,100430.53
2022-07-29T23:53:28.292Z,100436.63
2022-07-29T23:55:55.433Z,100427.97
2022-07-29T23:58:22.008Z,100443.53
